EGKK Airport Information

Runway Information
Runway 08L Length 8415 ft width 148 ft
Elevation 195 ft Threshold 1053 ft Heading 78
Runway 26R Length 8415 ft Width 148 ft
Elevation 195 ft Threshold 1366 ft Heading 258
Runway 08R Length 10364 ft width 148 ft
Elevation 196 ft Threshold 1288 ft Heading 78
Runway 26L Length 10364 ft Width 148 ft
Elevation 196 ft Threshold 878 ft Heading 258
Airport Frequencies
Type APP Name APP Frequency 126.825 MHZ
Type ATIS Name ATIS Frequency 136.525 MHZ
Type CLD Name CLNC DEL Frequency 121.95 MHZ
Type GND Name GND Frequency 121.8 MHZ
Type TWR Name TWR Frequency 124.225 MHZ
Airport Navaids
Type NDB Name Gatwick Frequency 338 KHZ
Type NDB Name Gatwick Frequency 365 KHZ
Airport Weather Information & NOTAM
ADDS - METARS form results

(1912 UTC 23 May 2019)
Data provider http://aviationweather.gov/metar/data/
 
METAR text: EGKK 231850Z 21006KT CAVOK 18/07 Q1015
Conditions at: EGKK (LONDON/GATWICK A, GB) observed 1850 UTC 23 May 2019
Temperature: 18.0°C (64°F)
Dewpoint: 7.0°C (45°F) [RH = 49%]
Pressure (altimeter): 29.97 inches Hg (1015.0 mb)
Winds: from the SSW (210 degrees) at 7 MPH (6 knots; 3.1 m/s)
Visibility: 6 or more miles (10+ km)
Ceiling: ceiling and visibility are OK
Clouds: unknown
Weather: no significant weather observed at this time

METAR text: EGKK 231820Z 21006KT 170V240 CAVOK 18/06 Q1015
Conditions at: EGKK (LONDON/GATWICK A, GB) observed 1820 UTC 23 May 2019
Temperature: 18.0°C (64°F)
Dewpoint: 6.0°C (43°F) [RH = 45%]
Pressure (altimeter): 29.97 inches Hg (1015.0 mb)
Winds: from the SSW (210 degrees) at 7 MPH (6 knots; 3.1 m/s)
Visibility: 6 or more miles (10+ km)
Ceiling: ceiling and visibility are OK
Clouds: unknown
Weather: no significant weather observed at this time

Forecast for: EGKK (LONDON/GATWICK A, GB)
Text: TAF EGKK 231702Z 2318/2424 21008KT 9999 FEW045
Forecast period: 1800 UTC 23 May 2019 to 0600 UTC 24 May 2019
Forecast type: FROM: standard forecast or significant change
Winds: from the SSW (210 degrees) at 9 MPH (8 knots; 4.1 m/s)
Visibility: 6 or more miles 10+ km)
Ceiling: at least 12,000 feet AGL
Clouds: few clouds at 4500 feet AGL
Weather: no significant weather forecast for this period
Text: PROB30 2402/2406 8000
Forecast period: 0200 to 0600 UTC 24 May 2019
Forecast type: PROBABLE: 30 percent likelihood of the following during this time
Visibility: 5 miles (8 km)
Ceiling: unknown
Clouds: missing
Weather: no significant weather forecast for this period
Text: BECMG 2406/2409 31010KT
Forecast period: 0600 UTC 24 May 2019 to 0000 UTC 25 May 2019
Forecast type: BECOMING: Conditions expected to become as follows by 0900 UTC 24 May 2019
Winds: from the NW (310 degrees) at 12 MPH (10 knots; 5.1 m/s)
Visibility: 6 or more miles 10+ km)
Ceiling: at least 12,000 feet AGL
Clouds: few clouds at 4500 feet AGL
Weather: no significant weather forecast for this period